sensor_id;sensor_type;location;lat;lon;timestamp;pressure;altitude;pressure_sealevel;temperature;humidity
13478;BME280;12598;62.382;17.344;2024-02-26T00:00:17;100491.91;;;19.96;23.31
13478;BME280;12598;62.382;17.344;2024-02-26T00:01:19;100477.69;;;19.88;23.05
13478;BME280;12598;62.382;17.344;2024-02-26T00:02:20;100506.34;;;19.95;23.32
13478;BME280;12598;62.382;17.344;2024-02-26T00:03:22;100506.53;;;19.94;23.33
13478;BME280;12598;62.382;17.344;2024-02-26T00:04:24;100509.22;;;19.94;22.92
13478;BME280;12598;62.382;17.344;2024-02-26T00:05:26;100502.31;;;19.91;23.45
13478;BME280;12598;62.382;17.344;2024-02-26T00:06:29;100508.53;;;19.92;22.72
13478;BME280;12598;62.382;17.344;2024-02-26T00:07:31;100492.25;;;19.85;23.00
13478;BME280;12598;62.382;17.344;2024-02-26T00:08:33;100505.19;;;19.90;23.35
13478;BME280;12598;62.382;17.344;2024-02-26T00:09:34;100500.16;;;19.87;23.32
13478;BME280;12598;62.382;17.344;2024-02-26T00:10:38;100514.38;;;19.87;23.18
13478;BME280;12598;62.382;17.344;2024-02-26T00:11:40;100514.03;;;19.82;23.06
13478;BME280;12598;62.382;17.344;2024-02-26T00:12:42;100513.03;;;19.83;22.97
13478;BME280;12598;62.382;17.344;2024-02-26T00:13:44;100518.75;;;19.80;23.26
13478;BME280;12598;62.382;17.344;2024-02-26T00:14:45;100520.28;;;19.83;22.78
13478;BME280;12598;62.382;17.344;2024-02-26T00:15:48;100520.41;;;19.81;23.30
13478;BME280;12598;62.382;17.344;2024-02-26T00:16:50;100522.28;;;19.81;22.95
13478;BME280;12598;62.382;17.344;2024-02-26T00:17:52;100521.75;;;19.77;23.30
13478;BME280;12598;62.382;17.344;2024-02-26T00:18:54;100513.84;;;19.76;23.36
13478;BME280;12598;62.382;17.344;2024-02-26T00:19:56;100523.44;;;19.78;23.57
13478;BME280;12598;62.382;17.344;2024-02-26T00:20:58;100528.94;;;19.77;22.81
13478;BME280;12598;62.382;17.344;2024-02-26T00:22:00;100520.91;;;19.77;23.06
13478;BME280;12598;62.382;17.344;2024-02-26T00:23:02;100518.41;;;19.75;23.30
13478;BME280;12598;62.382;17.344;2024-02-26T00:24:03;100516.72;;;19.74;23.31
13478;BME280;12598;62.382;17.344;2024-02-26T00:25:06;100521.91;;;19.76;23.29
13478;BME280;12598;62.382;17.344;2024-02-26T00:26:07;100522.59;;;19.78;23.17
13478;BME280;12598;62.382;17.344;2024-02-26T00:27:09;100520.22;;;19.75;23.30
13478;BME280;12598;62.382;17.344;2024-02-26T00:28:11;100516.72;;;19.74;23.57
13478;BME280;12598;62.382;17.344;2024-02-26T00:29:15;100531.47;;;19.78;23.58
13478;BME280;12598;62.382;17.344;2024-02-26T00:30:16;100526.13;;;19.78;23.33
13478;BME280;12598;62.382;17.344;2024-02-26T00:31:18;100518.41;;;19.75;23.32
13478;BME280;12598;62.382;17.344;2024-02-26T00:32:20;100492.56;;;19.58;23.44
13478;BME280;12598;62.382;17.344;2024-02-26T00:33:22;100517.25;;;19.78;23.62
13478;BME280;12598;62.382;17.344;2024-02-26T00:34:24;100522.59;;;19.78;23.10
13478;BME280;12598;62.382;17.344;2024-02-26T00:35:26;100515.03;;;19.73;23.37
13478;BME280;12598;62.382;17.344;2024-02-26T00:36:28;100505.66;;;19.69;23.19
13478;BME280;12598;62.382;17.344;2024-02-26T00:37:30;100516.88;;;19.73;23.34
13478;BME280;12598;62.382;17.344;2024-02-26T00:38:32;100514.72;;;19.76;23.60
13478;BME280;12598;62.382;17.344;2024-02-26T00:39:34;100521.75;;;19.77;23.63
13478;BME280;12598;62.382;17.344;2024-02-26T00:40:35;100530.81;;;19.76;23.25
13478;BME280;12598;62.382;17.344;2024-02-26T00:41:40;100523.75;;;19.75;23.64
13478;BME280;12598;62.382;17.344;2024-02-26T00:42:43;100514.50;;;19.70;23.17
13478;BME280;12598;62.382;17.344;2024-02-26T00:43:47;100516.19;;;19.71;23.56
13478;BME280;12598;62.382;17.344;2024-02-26T00:44:49;100525.78;;;19.73;23.19
13478;BME280;12598;62.382;17.344;2024-02-26T00:45:51;100529.94;;;19.76;23.19
13478;BME280;12598;62.382;17.344;2024-02-26T00:46:54;100521.56;;;19.71;23.39
13478;BME280;12598;62.382;17.344;2024-02-26T00:47:56;100527.44;;;19.74;23.31
13478;BME280;12598;62.382;17.344;2024-02-26T00:48:58;100529.47;;;19.72;23.64
13478;BME280;12598;62.382;17.344;2024-02-26T00:50:00;100522.06;;;19.66;23.42
13478;BME280;12598;62.382;17.344;2024-02-26T00:51:02;100527.78;;;19.71;23.09
13478;BME280;12598;62.382;17.344;2024-02-26T00:52:06;100529.47;;;19.72;23.13
13478;BME280;12598;62.382;17.344;2024-02-26T00:53:08;100527.09;;;19.69;23.44
13478;BME280;12598;62.382;17.344;2024-02-26T00:54:10;100519.72;;;19.63;23.42
13478;BME280;12598;62.382;17.344;2024-02-26T00:55:12;100520.38;;;19.65;23.24
13478;BME280;12598;62.382;17.344;2024-02-26T00:56:14;100525.75;;;19.65;23.38
13478;BME280;12598;62.382;17.344;2024-02-26T00:57:16;100525.75;;;19.65;23.59
13478;BME280;12598;62.382;17.344;2024-02-26T00:58:17;100530.13;;;19.66;22.93
13478;BME280;12598;62.382;17.344;2024-02-26T00:59:20;100528.44;;;19.65;23.16
13478;BME280;12598;62.382;17.344;2024-02-26T01:00:22;100532.13;;;19.64;23.34
13478;BME280;12598;62.382;17.344;2024-02-26T01:01:24;100519.19;;;19.60;23.31
13478;BME280;12598;62.382;17.344;2024-02-26T01:02:26;100534.47;;;19.59;23.36
13478;BME280;12598;62.382;17.344;2024-02-26T01:03:28;100539.50;;;19.62;23.03
13478;BME280;12598;62.382;17.344;2024-02-26T01:04:30;100531.09;;;19.57;23.34
13478;BME280;12598;62.382;17.344;2024-02-26T01:05:32;100541.50;;;19.60;23.58
13478;BME280;12598;62.382;17.344;2024-02-26T01:06:34;100535.59;;;19.57;23.26
13478;BME280;12598;62.382;17.344;2024-02-26T01:07:36;100532.59;;;19.60;23.70
13478;BME280;12598;62.382;17.344;2024-02-26T01:08:39;100538.97;;;19.59;23.28
13478;BME280;12598;62.382;17.344;2024-02-26T01:09:40;100532.78;;;19.58;23.28
13478;BME280;12598;62.382;17.344;2024-02-26T01:10:42;100534.59;;;19.58;23.56
13478;BME280;12598;62.382;17.344;2024-02-26T01:11:44;100513.25;;;19.40;23.70
13478;BME280;12598;62.382;17.344;2024-02-26T01:12:46;100536.75;;;19.54;23.14
13478;BME280;12598;62.382;17.344;2024-02-26T01:13:50;100538.44;;;19.55;23.43
13478;BME280;12598;62.382;17.344;2024-02-26T01:14:58;100525.19;;;19.46;23.40
13478;BME280;12598;62.382;17.344;2024-02-26T01:16:00;100536.75;;;19.54;23.82
13478;BME280;12598;62.382;17.344;2024-02-26T01:17:03;100527.88;;;19.46;23.42
13478;BME280;12598;62.382;17.344;2024-02-26T01:18:04;100511.06;;;19.36;23.50
13478;BME280;12598;62.382;17.344;2024-02-26T01:19:06;100534.72;;;19.48;23.41
13478;BME280;12598;62.382;17.344;2024-02-26T01:20:09;100543.44;;;19.50;23.45
13478;BME280;12598;62.382;17.344;2024-02-26T01:21:11;100538.75;;;19.44;23.64
13478;BME280;12598;62.382;17.344;2024-02-26T01:22:13;100548.13;;;19.48;23.26
13478;BME280;12598;62.382;17.344;2024-02-26T01:23:15;100542.97;;;19.47;23.29
13478;BME280;12598;62.382;17.344;2024-02-26T01:24:17;100543.78;;;19.47;23.81
13478;BME280;12598;62.382;17.344;2024-02-26T01:25:19;100534.03;;;19.38;23.64
13478;BME280;12598;62.382;17.344;2024-02-26T01:26:21;100545.97;;;19.44;23.27
13478;BME280;12598;62.382;17.344;2024-02-26T01:27:23;100538.75;;;19.44;23.16
13478;BME280;12598;62.382;17.344;2024-02-26T01:28:28;100542.28;;;19.45;23.67
13478;BME280;12598;62.382;17.344;2024-02-26T01:29:29;100545.09;;;19.43;23.21
13478;BME280;12598;62.382;17.344;2024-02-26T01:30:32;100531.88;;;19.42;23.88
13478;BME280;12598;62.382;17.344;2024-02-26T01:31:34;100548.78;;;19.42;23.63
13478;BME280;12598;62.382;17.344;2024-02-26T01:32:36;100536.56;;;19.40;23.76
13478;BME280;12598;62.382;17.344;2024-02-26T01:33:38;100529.00;;;19.36;23.90
13478;BME280;12598;62.382;17.344;2024-02-26T01:34:39;100540.06;;;19.40;23.89
13478;BME280;12598;62.382;17.344;2024-02-26T01:35:42;100535.03;;;19.38;23.42
13478;BME280;12598;62.382;17.344;2024-02-26T01:36:44;100538.72;;;19.37;23.91
13478;BME280;12598;62.382;17.344;2024-02-26T01:37:45;100538.72;;;19.37;23.78
13478;BME280;12598;62.382;17.344;2024-02-26T01:38:47;100526.28;;;19.28;23.29
13478;BME280;12598;62.382;17.344;2024-02-26T01:39:49;100531.81;;;19.34;23.57
13478;BME280;12598;62.382;17.344;2024-02-26T01:40:51;100537.19;;;19.34;23.43
13478;BME280;12598;62.382;17.344;2024-02-26T01:41:53;100540.88;;;19.33;23.71
13478;BME280;12598;62.382;17.344;2024-02-26T01:42:55;100530.63;;;19.29;23.37
13478;BME280;12598;62.382;17.344;2024-02-26T01:43:57;100539.34;;;19.31;23.42
13478;BME280;12598;62.382;17.344;2024-02-26T01:44:59;100541.19;;;19.30;23.44
13478;BME280;12598;62.382;17.344;2024-02-26T01:46:01;100543.03;;;19.30;23.90
13478;BME280;12598;62.382;17.344;2024-02-26T01:47:07;100544.03;;;19.29;23.81
13478;BME280;12598;62.382;17.344;2024-02-26T01:48:09;100543.88;;;19.30;23.36
13478;BME280;12598;62.382;17.344;2024-02-26T01:49:12;100540.84;;;19.25;23.76
13478;BME280;12598;62.382;17.344;2024-02-26T01:50:15;100533.97;;;19.23;23.76
13478;BME280;12598;62.382;17.344;2024-02-26T01:51:17;100544.38;;;19.26;23.56
13478;BME280;12598;62.382;17.344;2024-02-26T01:52:20;100544.50;;;19.24;23.20
13478;BME280;12598;62.382;17.344;2024-02-26T01:53:23;100537.31;;;19.25;23.75
13478;BME280;12598;62.382;17.344;2024-02-26T01:54:26;100535.97;;;19.21;23.61
13478;BME280;12598;62.382;17.344;2024-02-26T01:55:27;100537.66;;;19.22;23.73
13478;BME280;12598;62.382;17.344;2024-02-26T01:56:29;100527.56;;;19.16;23.55
13478;BME280;12598;62.382;17.344;2024-02-26T01:57:33;100537.66;;;19.22;23.54
13478;BME280;12598;62.382;17.344;2024-02-26T01:58:36;100542.34;;;19.20;23.90
13478;BME280;12598;62.382;17.344;2024-02-26T01:59:39;100540.66;;;19.19;23.75
13478;BME280;12598;62.382;17.344;2024-02-26T02:00:41;100534.91;;;19.14;23.61
13478;BME280;12598;62.382;17.344;2024-02-26T02:01:44;100538.97;;;19.18;23.20
13478;BME280;12598;62.382;17.344;2024-02-26T02:02:50;100527.00;;;19.12;23.77
13478;BME280;12598;62.382;17.344;2024-02-26T02:03:54;100536.44;;;19.16;23.39
13478;BME280;12598;62.382;17.344;2024-02-26T02:04:57;100528.00;;;19.11;23.38
13478;BME280;12598;62.382;17.344;2024-02-26T02:05:59;100541.94;;;19.15;23.83
13478;BME280;12598;62.382;17.344;2024-02-26T02:07:01;100541.22;;;19.13;24.03
13478;BME280;12598;62.382;17.344;2024-02-26T02:08:04;100533.50;;;19.10;23.37
13478;BME280;12598;62.382;17.344;2024-02-26T02:09:08;100544.09;;;19.11;23.42
13478;BME280;12598;62.382;17.344;2024-02-26T02:10:10;100538.19;;;19.08;23.79
13478;BME280;12598;62.382;17.344;2024-02-26T02:11:12;100543.22;;;19.11;23.68
13478;BME280;12598;62.382;17.344;2024-02-26T02:12:14;100529.34;;;19.07;23.37
13478;BME280;12598;62.382;17.344;2024-02-26T02:13:16;100536.84;;;19.04;23.76
13478;BME280;12598;62.382;17.344;2024-02-26T02:14:18;100532.00;;;19.07;23.59
13478;BME280;12598;62.382;17.344;2024-02-26T02:15:20;100533.84;;;19.07;23.85
13478;BME280;12598;62.382;17.344;2024-02-26T02:16:22;100520.25;;;19.00;23.59
13478;BME280;12598;62.382;17.344;2024-02-26T02:17:24;100535.00;;;19.04;23.61
13478;BME280;12598;62.382;17.344;2024-02-26T02:18:25;100539.84;;;19.01;23.73
13478;BME280;12598;62.382;17.344;2024-02-26T02:19:27;100542.50;;;19.01;23.78
13478;BME280;12598;62.382;17.344;2024-02-26T02:20:32;100543.19;;;19.03;23.80
13478;BME280;12598;62.382;17.344;2024-02-26T02:21:35;100548.72;;;19.01;23.63
13478;BME280;12598;62.382;17.344;2024-02-26T02:22:37;100534.13;;;18.96;23.34
13478;BME280;12598;62.382;17.344;2024-02-26T02:23:40;100544.19;;;19.02;23.72
13478;BME280;12598;62.382;17.344;2024-02-26T02:24:45;100544.19;;;19.02;23.37
13478;BME280;12598;62.382;17.344;2024-02-26T02:25:46;100543.50;;;19.00;23.65
13478;BME280;12598;62.382;17.344;2024-02-26T02:26:48;100536.78;;;18.96;23.51
13478;BME280;12598;62.382;17.344;2024-02-26T02:27:50;100535.78;;;18.97;23.72
13478;BME280;12598;62.382;17.344;2024-02-26T02:28:53;100536.09;;;18.94;23.64
13478;BME280;12598;62.382;17.344;2024-02-26T02:29:55;100539.47;;;18.96;23.73
13478;BME280;12598;62.382;17.344;2024-02-26T02:30:57;100535.44;;;18.92;23.74
13478;BME280;12598;62.382;17.344;2024-02-26T02:31:59;100548.38;;;18.96;23.16
13478;BME280;12598;62.382;17.344;2024-02-26T02:33:02;100551.88;;;18.97;23.38
13478;BME280;12598;62.382;17.344;2024-02-26T02:34:05;100550.19;;;18.96;23.55
13478;BME280;12598;62.382;17.344;2024-02-26T02:35:07;100559.22;;;18.95;23.62
13478;BME280;12598;62.382;17.344;2024-02-26T02:36:09;100547.97;;;18.91;23.47
13478;BME280;12598;62.382;17.344;2024-02-26T02:37:12;100558.19;;;18.88;23.35
13478;BME280;12598;62.382;17.344;2024-02-26T02:38:14;100552.16;;;18.86;23.53
13478;BME280;12598;62.382;17.344;2024-02-26T02:39:16;100547.28;;;18.89;23.56
13478;BME280;12598;62.382;17.344;2024-02-26T02:40:17;100553.81;;;18.87;23.68
13478;BME280;12598;62.382;17.344;2024-02-26T02:41:19;100556.81;;;18.84;23.68
13478;BME280;12598;62.382;17.344;2024-02-26T02:42:21;100566.34;;;18.86;23.51
13478;BME280;12598;62.382;17.344;2024-02-26T02:43:23;100559.19;;;18.87;22.99
13478;BME280;12598;62.382;17.344;2024-02-26T02:44:25;100561.19;;;18.85;23.68
13478;BME280;12598;62.382;17.344;2024-02-26T02:45:27;100574.25;;;18.88;23.22
13478;BME280;12598;62.382;17.344;2024-02-26T02:46:28;100554.78;;;18.78;23.54
13478;BME280;12598;62.382;17.344;2024-02-26T02:47:30;100571.72;;;18.86;23.58
13478;BME280;12598;62.382;17.344;2024-02-26T02:48:32;100576.25;;;18.86;23.63
13478;BME280;12598;62.382;17.344;2024-02-26T02:49:34;100579.94;;;18.85;23.32
13478;BME280;12598;62.382;17.344;2024-02-26T02:50:36;100568.00;;;18.79;23.96
13478;BME280;12598;62.382;17.344;2024-02-26T02:51:38;100569.84;;;18.79;23.63
13478;BME280;12598;62.382;17.344;2024-02-26T02:52:40;100576.72;;;18.81;23.66
13478;BME280;12598;62.382;17.344;2024-02-26T02:53:41;100587.28;;;18.83;23.32
13478;BME280;12598;62.382;17.344;2024-02-26T02:54:43;100581.94;;;18.83;23.80
13478;BME280;12598;62.382;17.344;2024-02-26T02:55:45;100590.97;;;18.82;23.33
13478;BME280;12598;62.382;17.344;2024-02-26T02:56:47;100583.25;;;18.79;23.30
13478;BME280;12598;62.382;17.344;2024-02-26T02:57:48;100591.97;;;18.81;23.38
13478;BME280;12598;62.382;17.344;2024-02-26T02:58:50;100587.91;;;18.77;23.39
13478;BME280;12598;62.382;17.344;2024-02-26T02:59:52;100595.63;;;18.80;23.13
13478;BME280;12598;62.382;17.344;2024-02-26T03:00:54;100580.47;;;18.71;23.21
13478;BME280;12598;62.382;17.344;2024-02-26T03:01:57;100596.25;;;18.74;23.40
13478;BME280;12598;62.382;17.344;2024-02-26T03:02:58;100581.47;;;18.70;23.22
13478;BME280;12598;62.382;17.344;2024-02-26T03:04:00;100594.09;;;18.77;23.17
13478;BME280;12598;62.382;17.344;2024-02-26T03:05:05;100591.91;;;18.73;23.56
13478;BME280;12598;62.382;17.344;2024-02-26T03:06:07;100598.63;;;18.77;23.69
13478;BME280;12598;62.382;17.344;2024-02-26T03:07:09;100598.63;;;18.77;23.40
13478;BME280;12598;62.382;17.344;2024-02-26T03:08:11;100604.13;;;18.75;23.29
13478;BME280;12598;62.382;17.344;2024-02-26T03:09:12;100599.75;;;18.74;23.68
13478;BME280;12598;62.382;17.344;2024-02-26T03:10:15;100600.94;;;18.72;23.50
13478;BME280;12598;62.382;17.344;2024-02-26T03:11:16;100585.31;;;18.67;23.25
13478;BME280;12598;62.382;17.344;2024-02-26T03:12:18;100599.94;;;18.73;23.12
13478;BME280;12598;62.382;17.344;2024-02-26T03:13:20;100594.19;;;18.68;23.41
13478;BME280;12598;62.382;17.344;2024-02-26T03:14:22;100595.34;;;18.65;23.50
13478;BME280;12598;62.382;17.344;2024-02-26T03:15:24;100599.22;;;18.71;23.64
13478;BME280;12598;62.382;17.344;2024-02-26T03:16:26;100591.81;;;18.65;23.10
13478;BME280;12598;62.382;17.344;2024-02-26T03:17:30;100613.78;;;18.68;23.73
13478;BME280;12598;62.382;17.344;2024-02-26T03:18:32;100615.47;;;18.69;23.52
13478;BME280;12598;62.382;17.344;2024-02-26T03:19:34;100618.13;;;18.69;23.51
13478;BME280;12598;62.382;17.344;2024-02-26T03:20:36;100610.56;;;18.65;23.56
13478;BME280;12598;62.382;17.344;2024-02-26T03:21:38;100610.88;;;18.62;23.64
13478;BME280;12598;62.382;17.344;2024-02-26T03:22:40;100627.31;;;18.67;23.48
13478;BME280;12598;62.382;17.344;2024-02-26T03:23:42;100622.94;;;18.66;23.14
13478;BME280;12598;62.382;17.344;2024-02-26T03:24:44;100628.31;;;18.66;23.68
13478;BME280;12598;62.382;17.344;2024-02-26T03:25:45;100625.63;;;18.66;23.37
13478;BME280;12598;62.382;17.344;2024-02-26T03:26:49;100625.63;;;18.66;23.58
13478;BME280;12598;62.382;17.344;2024-02-26T03:27:52;100632.84;;;18.65;23.34
13478;BME280;12598;62.382;17.344;2024-02-26T03:28:54;100627.63;;;18.64;23.60
13478;BME280;12598;62.382;17.344;2024-02-26T03:29:55;100625.25;;;18.61;23.52
13478;BME280;12598;62.382;17.344;2024-02-26T03:30:58;100628.63;;;18.63;23.25
13478;BME280;12598;62.382;17.344;2024-02-26T03:32:00;100634.84;;;18.63;23.64
13478;BME280;12598;62.382;17.344;2024-02-26T03:33:02;100633.97;;;18.63;23.48
13478;BME280;12598;62.382;17.344;2024-02-26T03:34:04;100637.66;;;18.62;23.47
13478;BME280;12598;62.382;17.344;2024-02-26T03:35:07;100637.66;;;18.62;23.23
13478;BME280;12598;62.382;17.344;2024-02-26T03:36:09;100631.78;;;18.58;23.45
13478;BME280;12598;62.382;17.344;2024-02-26T03:37:11;100638.66;;;18.61;23.45
13478;BME280;12598;62.382;17.344;2024-02-26T03:38:13;100642.31;;;18.60;23.62
13478;BME280;12598;62.382;17.344;2024-02-26T03:39:15;100648.66;;;18.59;23.36
13478;BME280;12598;62.382;17.344;2024-02-26T03:40:17;100640.94;;;18.56;23.29
13478;BME280;12598;62.382;17.344;2024-02-26T03:41:20;100647.84;;;18.58;23.50
13478;BME280;12598;62.382;17.344;2024-02-26T03:42:22;100637.88;;;18.51;23.47
13478;BME280;12598;62.382;17.344;2024-02-26T03:43:24;100634.91;;;18.54;23.11
13478;BME280;12598;62.382;17.344;2024-02-26T03:44:26;100639.94;;;18.57;23.53
13478;BME280;12598;62.382;17.344;2024-02-26T03:45:28;100636.91;;;18.52;23.20
13478;BME280;12598;62.382;17.344;2024-02-26T03:46:29;100636.75;;;18.53;23.23
13478;BME280;12598;62.382;17.344;2024-02-26T03:47:31;100643.63;;;18.56;23.18
13478;BME280;12598;62.382;17.344;2024-02-26T03:48:33;100641.94;;;18.55;22.94
13478;BME280;12598;62.382;17.344;2024-02-26T03:49:36;100645.25;;;18.49;23.23
13478;BME280;12598;62.382;17.344;2024-02-26T03:50:38;100644.78;;;18.53;23.20
13478;BME280;12598;62.382;17.344;2024-02-26T03:51:40;100632.97;;;18.46;23.12
13478;BME280;12598;62.382;17.344;2024-02-26T03:52:42;100652.97;;;18.52;23.42
13478;BME280;12598;62.382;17.344;2024-02-26T03:53:44;100638.34;;;18.46;23.43
13478;BME280;12598;62.382;17.344;2024-02-26T03:54:46;100653.97;;;18.51;23.21
13478;BME280;12598;62.382;17.344;2024-02-26T03:55:48;100629.72;;;18.35;23.43
13478;BME280;12598;62.382;17.344;2024-02-26T03:56:50;100656.63;;;18.51;23.32
13478;BME280;12598;62.382;17.344;2024-02-26T03:57:52;100647.38;;;18.45;23.10
13478;BME280;12598;62.382;17.344;2024-02-26T03:58:54;100644.00;;;18.43;23.49
13478;BME280;12598;62.382;17.344;2024-02-26T03:59:56;100658.63;;;18.49;23.13
13478;BME280;12598;62.382;17.344;2024-02-26T04:00:59;100658.63;;;18.49;23.42
13478;BME280;12598;62.382;17.344;2024-02-26T04:02:01;100666.66;;;18.49;23.22
13478;BME280;12598;62.382;17.344;2024-02-26T04:03:03;100652.41;;;18.48;23.20
13478;BME280;12598;62.382;17.344;2024-02-26T04:04:05;100661.44;;;18.47;23.18
13478;BME280;12598;62.382;17.344;2024-02-26T04:05:11;100655.25;;;18.47;23.43
13478;BME280;12598;62.382;17.344;2024-02-26T04:06:13;100660.63;;;18.47;23.24
13478;BME280;12598;62.382;17.344;2024-02-26T04:07:16;100662.28;;;18.48;23.51
13478;BME280;12598;62.382;17.344;2024-02-26T04:08:18;100663.28;;;18.47;23.43
13478;BME280;12598;62.382;17.344;2024-02-26T04:09:20;100658.06;;;18.45;23.29
13478;BME280;12598;62.382;17.344;2024-02-26T04:10:21;100663.44;;;18.45;23.00
13478;BME280;12598;62.382;17.344;2024-02-26T04:11:23;100663.59;;;18.44;23.30
13478;BME280;12598;62.382;17.344;2024-02-26T04:12:25;100659.25;;;18.43;23.35
13478;BME280;12598;62.382;17.344;2024-02-26T04:13:27;100659.25;;;18.43;23.32
13478;BME280;12598;62.382;17.344;2024-02-26T04:14:29;100655.88;;;18.41;23.20
13478;BME280;12598;62.382;17.344;2024-02-26T04:15:31;100664.03;;;18.39;23.22
13478;BME280;12598;62.382;17.344;2024-02-26T04:16:34;100666.59;;;18.41;23.01
13478;BME280;12598;62.382;17.344;2024-02-26T04:17:37;100665.59;;;18.42;23.70
13478;BME280;12598;62.382;17.344;2024-02-26T04:18:40;100662.91;;;18.42;23.31
13478;BME280;12598;62.382;17.344;2024-02-26T04:19:42;100671.94;;;18.41;23.30
13478;BME280;12598;62.382;17.344;2024-02-26T04:20:44;100669.41;;;18.39;23.72
13478;BME280;12598;62.382;17.344;2024-02-26T04:21:46;100676.59;;;18.39;22.95
13478;BME280;12598;62.382;17.344;2024-02-26T04:22:47;100671.25;;;18.39;23.17
13478;BME280;12598;62.382;17.344;2024-02-26T04:23:49;100661.97;;;18.33;23.16
13478;BME280;12598;62.382;17.344;2024-02-26T04:24:51;100658.59;;;18.31;23.17
13478;BME280;12598;62.382;17.344;2024-02-26T04:25:53;100673.22;;;18.37;23.42
13478;BME280;12598;62.382;17.344;2024-02-26T04:26:55;100667.03;;;18.36;22.88
13478;BME280;12598;62.382;17.344;2024-02-26T04:27:57;100669.88;;;18.35;23.13
13478;BME280;12598;62.382;17.344;2024-02-26T04:28:58;100668.03;;;18.35;23.31
13478;BME280;12598;62.382;17.344;2024-02-26T04:30:00;100663.66;;;18.34;23.08
13478;BME280;12598;62.382;17.344;2024-02-26T04:31:02;100664.97;;;18.30;23.25
13478;BME280;12598;62.382;17.344;2024-02-26T04:32:04;100660.72;;;18.28;23.15
13478;BME280;12598;62.382;17.344;2024-02-26T04:33:07;100668.50;;;18.31;23.11
13478;BME280;12598;62.382;17.344;2024-02-26T04:34:09;100671.84;;;18.33;22.89
13478;BME280;12598;62.382;17.344;2024-02-26T04:35:14;100669.19;;;18.33;23.49
13478;BME280;12598;62.382;17.344;2024-02-26T04:36:16;100665.94;;;18.29;23.17
13478;BME280;12598;62.382;17.344;2024-02-26T04:37:18;100674.66;;;18.31;23.54
13478;BME280;12598;62.382;17.344;2024-02-26T04:38:20;100674.84;;;18.30;23.72
13478;BME280;12598;62.382;17.344;2024-02-26T04:39:22;100676.53;;;18.31;23.22
13478;BME280;12598;62.382;17.344;2024-02-26T04:40:24;100674.84;;;18.30;23.13
13478;BME280;12598;62.382;17.344;2024-02-26T04:41:25;100677.38;;;18.22;23.30
13478;BME280;12598;62.382;17.344;2024-02-26T04:42:27;100683.00;;;18.28;23.13
13478;BME280;12598;62.382;17.344;2024-02-26T04:43:29;100668.34;;;18.23;23.16
13478;BME280;12598;62.382;17.344;2024-02-26T04:44:31;100674.38;;;18.25;23.47
13478;BME280;12598;62.382;17.344;2024-02-26T04:45:33;100681.59;;;18.24;23.36
13478;BME280;12598;62.382;17.344;2024-02-26T04:46:35;100673.88;;;18.21;23.15
13478;BME280;12598;62.382;17.344;2024-02-26T04:47:36;100688.50;;;18.27;23.59
13478;BME280;12598;62.382;17.344;2024-02-26T04:48:38;100684.13;;;18.26;23.56
13478;BME280;12598;62.382;17.344;2024-02-26T04:49:40;100688.63;;;18.25;23.43
13478;BME280;12598;62.382;17.344;2024-02-26T04:50:42;100678.06;;;18.24;23.42
13478;BME280;12598;62.382;17.344;2024-02-26T04:51:44;100690.63;;;18.23;23.12
13478;BME280;12598;62.382;17.344;2024-02-26T04:52:46;100673.47;;;18.16;23.45
13478;BME280;12598;62.382;17.344;2024-02-26T04:53:48;100679.53;;;18.18;23.16
13478;BME280;12598;62.382;17.344;2024-02-26T04:54:49;100698.78;;;18.22;23.21
13478;BME280;12598;62.382;17.344;2024-02-26T04:55:51;100667.63;;;18.03;22.99
13478;BME280;12598;62.382;17.344;2024-02-26T04:56:53;100696.28;;;18.20;23.10
13478;BME280;12598;62.382;17.344;2024-02-26T04:57:55;100695.28;;;18.21;23.02
13478;BME280;12598;62.382;17.344;2024-02-26T04:58:57;100693.03;;;18.17;23.02
13478;BME280;12598;62.382;17.344;2024-02-26T04:59:58;100701.63;;;18.20;23.15
13478;BME280;12598;62.382;17.344;2024-02-26T05:01:00;100659.06;;;18.00;23.46
13478;BME280;12598;62.382;17.344;2024-02-26T05:02:03;100694.59;;;18.19;23.35
13478;BME280;12598;62.382;17.344;2024-02-26T05:03:05;100701.75;;;18.19;23.00
13478;BME280;12598;62.382;17.344;2024-02-26T05:04:07;100697.41;;;18.18;22.98
13478;BME280;12598;62.382;17.344;2024-02-26T05:05:09;100696.31;;;18.11;23.19
13478;BME280;12598;62.382;17.344;2024-02-26T05:06:11;100698.25;;;18.18;23.31
13478;BME280;12598;62.382;17.344;2024-02-26T05:07:13;100695.72;;;18.17;23.42
13478;BME280;12598;62.382;17.344;2024-02-26T05:08:15;100701.06;;;18.17;23.05
13478;BME280;12598;62.382;17.344;2024-02-26T05:09:17;100701.06;;;18.17;23.33
13478;BME280;12598;62.382;17.344;2024-02-26T05:10:18;100700.38;;;18.15;22.98
13478;BME280;12598;62.382;17.344;2024-02-26T05:11:20;100699.38;;;18.16;23.37
13478;BME280;12598;62.382;17.344;2024-02-26T05:12:22;100704.91;;;18.14;23.11
13478;BME280;12598;62.382;17.344;2024-02-26T05:13:24;100708.41;;;18.15;23.35
13478;BME280;12598;62.382;17.344;2024-02-26T05:14:26;100712.06;;;18.14;23.38
13478;BME280;12598;62.382;17.344;2024-02-26T05:15:27;100693.50;;;18.12;23.05
13478;BME280;12598;62.382;17.344;2024-02-26T05:16:29;100700.84;;;18.10;22.98
13478;BME280;12598;62.382;17.344;2024-02-26T05:17:32;100701.28;;;18.06;23.13
13478;BME280;12598;62.382;17.344;2024-02-26T05:18:34;100697.75;;;18.05;22.90
13478;BME280;12598;62.382;17.344;2024-02-26T05:19:36;100699.59;;;18.05;23.04
13478;BME280;12598;62.382;17.344;2024-02-26T05:20:38;100705.50;;;18.08;23.07